sensor_id;sensor_type;location;lat;lon;timestamp;temperature;humidity
15906;DHT22;8051;50.820;4.884;2023-04-03T00:01:55;2.80;99.90
15906;DHT22;8051;50.820;4.884;2023-04-03T00:04:22;2.70;99.90
15906;DHT22;8051;50.820;4.884;2023-04-03T00:06:50;2.70;99.90
15906;DHT22;8051;50.820;4.884;2023-04-03T00:09:18;2.70;99.90
15906;DHT22;8051;50.820;4.884;2023-04-03T00:11:46;2.60;99.90
15906;DHT22;8051;50.820;4.884;2023-04-03T00:14:13;2.60;99.90
15906;DHT22;8051;50.820;4.884;2023-04-03T00:16:41;2.60;99.90
15906;DHT22;8051;50.820;4.884;2023-04-03T00:19:10;2.60;99.90
15906;DHT22;8051;50.820;4.884;2023-04-03T00:21:38;2.50;99.90
15906;DHT22;8051;50.820;4.884;2023-04-03T00:24:06;2.50;99.90
15906;DHT22;8051;50.820;4.884;2023-04-03T00:26:34;2.50;99.90
15906;DHT22;8051;50.820;4.884;2023-04-03T00:29:01;2.50;99.90
15906;DHT22;8051;50.820;4.884;2023-04-03T00:31:29;2.50;99.90
15906;DHT22;8051;50.820;4.884;2023-04-03T00:33:56;2.50;99.90
15906;DHT22;8051;50.820;4.884;2023-04-03T00:36:25;2.50;99.90
15906;DHT22;8051;50.820;4.884;2023-04-03T00:38:52;2.40;99.90
15906;DHT22;8051;50.820;4.884;2023-04-03T00:41:20;2.40;99.90
15906;DHT22;8051;50.820;4.884;2023-04-03T00:43:48;2.40;99.90
15906;DHT22;8051;50.820;4.884;2023-04-03T00:46:15;2.40;99.90
15906;DHT22;8051;50.820;4.884;2023-04-03T00:48:45;2.40;99.90
15906;DHT22;8051;50.820;4.884;2023-04-03T00:51:16;2.30;99.90
15906;DHT22;8051;50.820;4.884;2023-04-03T00:53:47;2.30;99.90
15906;DHT22;8051;50.820;4.884;2023-04-03T00:56:19;2.20;99.90
15906;DHT22;8051;50.820;4.884;2023-04-03T00:58:51;2.20;99.90
15906;DHT22;8051;50.820;4.884;2023-04-03T01:01:23;2.20;99.90
15906;DHT22;8051;50.820;4.884;2023-04-03T01:03:52;2.20;99.90
15906;DHT22;8051;50.820;4.884;2023-04-03T01:06:23;2.10;99.90
15906;DHT22;8051;50.820;4.884;2023-04-03T01:08:53;2.10;99.90
15906;DHT22;8051;50.820;4.884;2023-04-03T01:11:22;2.10;99.90
15906;DHT22;8051;50.820;4.884;2023-04-03T01:13:49;2.10;99.90
15906;DHT22;8051;50.820;4.884;2023-04-03T01:16:17;2.00;99.90
15906;DHT22;8051;50.820;4.884;2023-04-03T01:18:45;2.10;99.90
15906;DHT22;8051;50.820;4.884;2023-04-03T01:21:42;2.00;99.90
15906;DHT22;8051;50.820;4.884;2023-04-03T01:24:25;2.00;99.90
15906;DHT22;8051;50.820;4.884;2023-04-03T01:26:55;2.00;99.90
15906;DHT22;8051;50.820;4.884;2023-04-03T01:29:23;2.00;99.90
15906;DHT22;8051;50.820;4.884;2023-04-03T01:31:53;2.00;99.90
15906;DHT22;8051;50.820;4.884;2023-04-03T01:34:21;2.00;99.90
15906;DHT22;8051;50.820;4.884;2023-04-03T01:36:49;2.00;99.90
15906;DHT22;8051;50.820;4.884;2023-04-03T01:39:18;2.00;99.90
15906;DHT22;8051;50.820;4.884;2023-04-03T01:41:46;2.00;99.90
15906;DHT22;8051;50.820;4.884;2023-04-03T01:44:13;2.00;99.90
15906;DHT22;8051;50.820;4.884;2023-04-03T01:46:41;1.90;99.90
15906;DHT22;8051;50.820;4.884;2023-04-03T01:49:10;1.90;99.90
15906;DHT22;8051;50.820;4.884;2023-04-03T01:51:37;1.90;99.90
15906;DHT22;8051;50.820;4.884;2023-04-03T01:54:05;1.90;99.90
15906;DHT22;8051;50.820;4.884;2023-04-03T01:56:32;1.90;99.90
15906;DHT22;8051;50.820;4.884;2023-04-03T01:58:59;1.90;99.90
15906;DHT22;8051;50.820;4.884;2023-04-03T02:01:27;1.90;99.90
15906;DHT22;8051;50.820;4.884;2023-04-03T02:03:54;1.90;99.90
15906;DHT22;8051;50.820;4.884;2023-04-03T02:06:23;1.90;99.90
15906;DHT22;8051;50.820;4.884;2023-04-03T02:08:51;1.90;99.90
15906;DHT22;8051;50.820;4.884;2023-04-03T02:11:18;1.80;99.90
15906;DHT22;8051;50.820;4.884;2023-04-03T02:13:46;1.80;99.90
15906;DHT22;8051;50.820;4.884;2023-04-03T02:16:13;1.70;99.90
15906;DHT22;8051;50.820;4.884;2023-04-03T02:18:40;1.60;99.90
15906;DHT22;8051;50.820;4.884;2023-04-03T02:21:08;1.60;99.90
15906;DHT22;8051;50.820;4.884;2023-04-03T02:23:37;1.60;99.90
15906;DHT22;8051;50.820;4.884;2023-04-03T02:26:06;1.50;99.90
15906;DHT22;8051;50.820;4.884;2023-04-03T02:28:34;1.50;99.90
15906;DHT22;8051;50.820;4.884;2023-04-03T02:31:02;1.50;99.90
15906;DHT22;8051;50.820;4.884;2023-04-03T02:33:30;1.40;99.90
15906;DHT22;8051;50.820;4.884;2023-04-03T02:35:58;1.40;99.90
15906;DHT22;8051;50.820;4.884;2023-04-03T02:38:25;1.40;99.90
15906;DHT22;8051;50.820;4.884;2023-04-03T02:41:00;1.30;99.90
15906;DHT22;8051;50.820;4.884;2023-04-03T02:43:27;1.30;99.90
15906;DHT22;8051;50.820;4.884;2023-04-03T02:45:55;1.30;99.90
15906;DHT22;8051;50.820;4.884;2023-04-03T02:48:23;1.30;99.90
15906;DHT22;8051;50.820;4.884;2023-04-03T02:50:51;1.20;99.90
15906;DHT22;8051;50.820;4.884;2023-04-03T02:53:19;1.20;99.90
15906;DHT22;8051;50.820;4.884;2023-04-03T02:55:46;1.10;99.90
15906;DHT22;8051;50.820;4.884;2023-04-03T02:58:15;1.10;99.90
15906;DHT22;8051;50.820;4.884;2023-04-03T03:00:43;1.10;99.90
15906;DHT22;8051;50.820;4.884;2023-04-03T03:03:10;1.00;99.90
15906;DHT22;8051;50.820;4.884;2023-04-03T03:05:39;1.10;99.90
15906;DHT22;8051;50.820;4.884;2023-04-03T03:08:06;1.00;99.90
15906;DHT22;8051;50.820;4.884;2023-04-03T03:10:34;1.00;99.90
15906;DHT22;8051;50.820;4.884;2023-04-03T03:13:01;1.00;99.90
15906;DHT22;8051;50.820;4.884;2023-04-03T03:15:30;1.00;99.90
15906;DHT22;8051;50.820;4.884;2023-04-03T03:17:58;1.00;99.90
15906;DHT22;8051;50.820;4.884;2023-04-03T03:20:26;1.00;99.90
15906;DHT22;8051;50.820;4.884;2023-04-03T03:22:54;1.00;99.90
15906;DHT22;8051;50.820;4.884;2023-04-03T03:25:21;1.00;99.90
15906;DHT22;8051;50.820;4.884;2023-04-03T03:27:48;1.00;99.90
15906;DHT22;8051;50.820;4.884;2023-04-03T03:30:16;1.00;99.90
15906;DHT22;8051;50.820;4.884;2023-04-03T03:32:45;1.00;99.90
15906;DHT22;8051;50.820;4.884;2023-04-03T03:35:13;1.00;99.90
15906;DHT22;8051;50.820;4.884;2023-04-03T03:37:40;1.00;99.90
15906;DHT22;8051;50.820;4.884;2023-04-03T03:40:09;1.00;99.90
15906;DHT22;8051;50.820;4.884;2023-04-03T03:42:38;0.90;99.90
15906;DHT22;8051;50.820;4.884;2023-04-03T03:45:07;0.90;99.90
15906;DHT22;8051;50.820;4.884;2023-04-03T03:47:34;0.90;99.90
15906;DHT22;8051;50.820;4.884;2023-04-03T03:50:05;1.00;99.90
15906;DHT22;8051;50.820;4.884;2023-04-03T03:52:32;1.00;99.90
15906;DHT22;8051;50.820;4.884;2023-04-03T03:55:00;0.90;99.90
15906;DHT22;8051;50.820;4.884;2023-04-03T03:57:28;0.90;99.90
15906;DHT22;8051;50.820;4.884;2023-04-03T03:59:56;0.90;99.90
15906;DHT22;8051;50.820;4.884;2023-04-03T04:02:23;0.90;99.90
15906;DHT22;8051;50.820;4.884;2023-04-03T04:04:51;0.90;99.90
15906;DHT22;8051;50.820;4.884;2023-04-03T04:07:20;0.90;99.90
15906;DHT22;8051;50.820;4.884;2023-04-03T04:09:48;0.80;99.90
15906;DHT22;8051;50.820;4.884;2023-04-03T04:12:16;0.80;99.90
15906;DHT22;8051;50.820;4.884;2023-04-03T04:14:43;0.80;99.90
15906;DHT22;8051;50.820;4.884;2023-04-03T04:17:12;0.80;99.90
15906;DHT22;8051;50.820;4.884;2023-04-03T04:19:40;0.80;99.90
15906;DHT22;8051;50.820;4.884;2023-04-03T04:22:07;0.90;99.90
15906;DHT22;8051;50.820;4.884;2023-04-03T04:24:36;0.80;99.90
15906;DHT22;8051;50.820;4.884;2023-04-03T04:27:03;0.80;99.90
15906;DHT22;8051;50.820;4.884;2023-04-03T04:29:31;0.80;99.90
15906;DHT22;8051;50.820;4.884;2023-04-03T04:32:01;0.80;99.90
15906;DHT22;8051;50.820;4.884;2023-04-03T04:34:29;0.70;99.90
15906;DHT22;8051;50.820;4.884;2023-04-03T04:36:56;0.70;99.90
15906;DHT22;8051;50.820;4.884;2023-04-03T04:39:24;0.70;99.90
15906;DHT22;8051;50.820;4.884;2023-04-03T04:41:53;0.70;99.90
15906;DHT22;8051;50.820;4.884;2023-04-03T04:44:20;0.70;99.90
15906;DHT22;8051;50.820;4.884;2023-04-03T04:46:48;0.70;99.90
15906;DHT22;8051;50.820;4.884;2023-04-03T04:49:15;0.70;99.90
15906;DHT22;8051;50.820;4.884;2023-04-03T04:51:42;0.60;99.90
15906;DHT22;8051;50.820;4.884;2023-04-03T04:54:10;0.70;99.90
15906;DHT22;8051;50.820;4.884;2023-04-03T04:56:37;0.70;99.90
15906;DHT22;8051;50.820;4.884;2023-04-03T04:59:06;0.60;99.90
15906;DHT22;8051;50.820;4.884;2023-04-03T05:01:34;0.60;99.90
15906;DHT22;8051;50.820;4.884;2023-04-03T05:04:01;0.50;99.90
15906;DHT22;8051;50.820;4.884;2023-04-03T05:06:29;0.60;99.90
15906;DHT22;8051;50.820;4.884;2023-04-03T05:08:57;0.50;99.90
15906;DHT22;8051;50.820;4.884;2023-04-03T05:11:25;0.50;99.90
15906;DHT22;8051;50.820;4.884;2023-04-03T05:13:52;0.50;99.90
15906;DHT22;8051;50.820;4.884;2023-04-03T05:16:21;0.50;99.90
15906;DHT22;8051;50.820;4.884;2023-04-03T05:18:49;0.40;99.90
15906;DHT22;8051;50.820;4.884;2023-04-03T05:21:16;0.40;99.90
15906;DHT22;8051;50.820;4.884;2023-04-03T05:23:45;0.30;99.90
15906;DHT22;8051;50.820;4.884;2023-04-03T05:26:12;0.30;99.90
15906;DHT22;8051;50.820;4.884;2023-04-03T05:28:40;0.30;99.90
15906;DHT22;8051;50.820;4.884;2023-04-03T05:31:07;0.20;99.90
15906;DHT22;8051;50.820;4.884;2023-04-03T05:33:36;0.20;99.90
15906;DHT22;8051;50.820;4.884;2023-04-03T05:36:05;0.20;99.90
15906;DHT22;8051;50.820;4.884;2023-04-03T05:38:32;0.20;99.90
15906;DHT22;8051;50.820;4.884;2023-04-03T05:41:00;0.20;99.90
15906;DHT22;8051;50.820;4.884;2023-04-03T05:43:27;0.20;99.90
15906;DHT22;8051;50.820;4.884;2023-04-03T05:45:54;0.20;99.90
15906;DHT22;8051;50.820;4.884;2023-04-03T05:48:22;0.20;99.90
15906;DHT22;8051;50.820;4.884;2023-04-03T05:50:51;0.20;99.90
15906;DHT22;8051;50.820;4.884;2023-04-03T05:53:22;0.30;99.90
15906;DHT22;8051;50.820;4.884;2023-04-03T05:55:51;0.40;99.90
15906;DHT22;8051;50.820;4.884;2023-04-03T05:58:19;0.50;99.90
15906;DHT22;8051;50.820;4.884;2023-04-03T06:00:47;0.50;99.90
15906;DHT22;8051;50.820;4.884;2023-04-03T06:03:14;0.60;99.90
15906;DHT22;8051;50.820;4.884;2023-04-03T06:05:42;0.70;99.90
15906;DHT22;8051;50.820;4.884;2023-04-03T06:08:11;0.80;99.90
15906;DHT22;8051;50.820;4.884;2023-04-03T06:10:40;0.90;99.90
15906;DHT22;8051;50.820;4.884;2023-04-03T06:13:07;1.00;99.90
15906;DHT22;8051;50.820;4.884;2023-04-03T06:15:35;1.10;99.90
15906;DHT22;8051;50.820;4.884;2023-04-03T06:18:02;1.20;99.90
15906;DHT22;8051;50.820;4.884;2023-04-03T06:20:30;1.30;99.90
15906;DHT22;8051;50.820;4.884;2023-04-03T06:22:58;1.40;99.90
15906;DHT22;8051;50.820;4.884;2023-04-03T06:25:27;1.50;99.90
15906;DHT22;8051;50.820;4.884;2023-04-03T06:27:54;1.50;99.90
15906;DHT22;8051;50.820;4.884;2023-04-03T06:30:22;1.60;99.90
15906;DHT22;8051;50.820;4.884;2023-04-03T06:32:49;1.70;99.90
15906;DHT22;8051;50.820;4.884;2023-04-03T06:35:17;1.70;99.90
15906;DHT22;8051;50.820;4.884;2023-04-03T06:37:45;1.80;99.90
15906;DHT22;8051;50.820;4.884;2023-04-03T06:40:18;1.80;99.90
15906;DHT22;8051;50.820;4.884;2023-04-03T06:42:48;1.80;99.90
15906;DHT22;8051;50.820;4.884;2023-04-03T06:45:15;1.90;99.90
15906;DHT22;8051;50.820;4.884;2023-04-03T06:47:42;2.00;99.90
15906;DHT22;8051;50.820;4.884;2023-04-03T06:50:11;2.00;99.90
15906;DHT22;8051;50.820;4.884;2023-04-03T06:52:40;2.10;99.90
15906;DHT22;8051;50.820;4.884;2023-04-03T06:55:08;2.20;99.90
15906;DHT22;8051;50.820;4.884;2023-04-03T06:57:36;2.20;99.90
15906;DHT22;8051;50.820;4.884;2023-04-03T07:00:07;2.20;99.90
15906;DHT22;8051;50.820;4.884;2023-04-03T07:02:35;2.30;99.90
15906;DHT22;8051;50.820;4.884;2023-04-03T07:05:02;2.30;99.90
15906;DHT22;8051;50.820;4.884;2023-04-03T07:07:30;2.30;99.90
15906;DHT22;8051;50.820;4.884;2023-04-03T07:09:59;2.40;99.90
15906;DHT22;8051;50.820;4.884;2023-04-03T07:12:26;2.50;99.90
15906;DHT22;8051;50.820;4.884;2023-04-03T07:14:54;2.50;99.90
15906;DHT22;8051;50.820;4.884;2023-04-03T07:17:22;2.60;99.90
15906;DHT22;8051;50.820;4.884;2023-04-03T07:19:51;2.60;99.90
15906;DHT22;8051;50.820;4.884;2023-04-03T07:22:18;2.70;99.90
15906;DHT22;8051;50.820;4.884;2023-04-03T07:24:46;2.80;99.90
15906;DHT22;8051;50.820;4.884;2023-04-03T07:27:13;2.90;99.90
15906;DHT22;8051;50.820;4.884;2023-04-03T07:29:41;3.00;99.90
15906;DHT22;8051;50.820;4.884;2023-04-03T07:32:08;3.10;99.90
15906;DHT22;8051;50.820;4.884;2023-04-03T07:34:38;3.10;99.90
15906;DHT22;8051;50.820;4.884;2023-04-03T07:37:06;3.10;99.90
15906;DHT22;8051;50.820;4.884;2023-04-03T07:39:34;3.10;99.90
15906;DHT22;8051;50.820;4.884;2023-04-03T07:42:02;3.20;99.90
15906;DHT22;8051;50.820;4.884;2023-04-03T07:44:30;3.30;99.90
15906;DHT22;8051;50.820;4.884;2023-04-03T07:46:58;3.40;99.90
15906;DHT22;8051;50.820;4.884;2023-04-03T07:49:25;3.40;99.90
15906;DHT22;8051;50.820;4.884;2023-04-03T07:51:54;3.50;99.90
15906;DHT22;8051;50.820;4.884;2023-04-03T07:54:22;3.50;99.90
15906;DHT22;8051;50.820;4.884;2023-04-03T07:56:49;3.60;99.90
15906;DHT22;8051;50.820;4.884;2023-04-03T07:59:16;3.70;99.90
15906;DHT22;8051;50.820;4.884;2023-04-03T08:01:44;3.80;99.90
15906;DHT22;8051;50.820;4.884;2023-04-03T08:04:11;3.90;99.90
15906;DHT22;8051;50.820;4.884;2023-04-03T08:06:39;4.00;99.90
15906;DHT22;8051;50.820;4.884;2023-04-03T08:09:08;4.00;99.90
15906;DHT22;8051;50.820;4.884;2023-04-03T08:11:38;4.10;99.90
15906;DHT22;8051;50.820;4.884;2023-04-03T08:14:05;4.10;99.90
15906;DHT22;8051;50.820;4.884;2023-04-03T08:16:33;4.20;99.90
15906;DHT22;8051;50.820;4.884;2023-04-03T08:19:01;4.30;99.90
15906;DHT22;8051;50.820;4.884;2023-04-03T08:21:28;4.30;99.90
15906;DHT22;8051;50.820;4.884;2023-04-03T08:23:56;4.40;99.90
15906;DHT22;8051;50.820;4.884;2023-04-03T08:26:25;4.50;99.90
15906;DHT22;8051;50.820;4.884;2023-04-03T08:28:53;4.60;99.90
15906;DHT22;8051;50.820;4.884;2023-04-03T08:31:20;4.60;99.90
15906;DHT22;8051;50.820;4.884;2023-04-03T08:33:48;4.70;99.90
15906;DHT22;8051;50.820;4.884;2023-04-03T08:36:20;4.80;99.90
15906;DHT22;8051;50.820;4.884;2023-04-03T08:38:48;4.90;99.90
15906;DHT22;8051;50.820;4.884;2023-04-03T08:41:20;4.90;99.90
15906;DHT22;8051;50.820;4.884;2023-04-03T08:44:07;5.00;99.90
15906;DHT22;8051;50.820;4.884;2023-04-03T08:46:44;5.20;99.90
15906;DHT22;8051;50.820;4.884;2023-04-03T08:49:21;5.30;99.90
15906;DHT22;8051;50.820;4.884;2023-04-03T08:51:50;5.30;99.90
15906;DHT22;8051;50.820;4.884;2023-04-03T08:54:27;5.30;99.90
15906;DHT22;8051;50.820;4.884;2023-04-03T08:56:56;5.30;99.90
15906;DHT22;8051;50.820;4.884;2023-04-03T08:59:29;5.30;99.90
15906;DHT22;8051;50.820;4.884;2023-04-03T09:02:00;5.40;99.90
15906;DHT22;8051;50.820;4.884;2023-04-03T09:04:31;5.40;99.90
15906;DHT22;8051;50.820;4.884;2023-04-03T09:07:06;5.50;99.90
15906;DHT22;8051;50.820;4.884;2023-04-03T09:09:37;5.60;99.90
15906;DHT22;8051;50.820;4.884;2023-04-03T09:12:15;5.70;99.90
15906;DHT22;8051;50.820;4.884;2023-04-03T09:14:52;5.80;99.90
15906;DHT22;8051;50.820;4.884;2023-04-03T09:17:33;5.80;99.90
15906;DHT22;8051;50.820;4.884;2023-04-03T09:20:09;5.80;99.90
15906;DHT22;8051;50.820;4.884;2023-04-03T09:22:41;6.00;99.90
15906;DHT22;8051;50.820;4.884;2023-04-03T09:25:13;6.10;99.90
15906;DHT22;8051;50.820;4.884;2023-04-03T09:27:41;6.10;99.90
15906;DHT22;8051;50.820;4.884;2023-04-03T09:30:14;6.20;99.90
15906;DHT22;8051;50.820;4.884;2023-04-03T09:32:45;6.40;99.90
15906;DHT22;8051;50.820;4.884;2023-04-03T09:35:23;6.40;99.90
15906;DHT22;8051;50.820;4.884;2023-04-03T09:37:51;6.40;99.90
15906;DHT22;8051;50.820;4.884;2023-04-03T09:40:31;6.50;99.90
15906;DHT22;8051;50.820;4.884;2023-04-03T09:43:08;6.50;99.90
15906;DHT22;8051;50.820;4.884;2023-04-03T09:45:48;6.50;99.90
15906;DHT22;8051;50.820;4.884;2023-04-03T09:48:18;6.70;99.90
15906;DHT22;8051;50.820;4.884;2023-04-03T09:50:57;6.60;99.90
15906;DHT22;8051;50.820;4.884;2023-04-03T09:53:29;6.70;99.90
15906;DHT22;8051;50.820;4.884;2023-04-03T09:55:57;6.70;99.90
15906;DHT22;8051;50.820;4.884;2023-04-03T09:58:26;6.80;99.90
15906;DHT22;8051;50.820;4.884;2023-04-03T10:00:57;6.70;99.90
15906;DHT22;8051;50.820;4.884;2023-04-03T10:03:29;6.80;99.90
15906;DHT22;8051;50.820;4.884;2023-04-03T10:05:57;6.80;99.90
15906;DHT22;8051;50.820;4.884;2023-04-03T10:08:28;6.80;99.90
15906;DHT22;8051;50.820;4.884;2023-04-03T10:11:13;6.70;99.90
15906;DHT22;8051;50.820;4.884;2023-04-03T10:13:53;6.90;99.90
15906;DHT22;8051;50.820;4.884;2023-04-03T10:16:26;7.00;99.90
15906;DHT22;8051;50.820;4.884;2023-04-03T10:19:17;7.20;99.90
15906;DHT22;8051;50.820;4.884;2023-04-03T10:21:55;7.10;99.90
15906;DHT22;8051;50.820;4.884;2023-04-03T10:24:30;7.20;99.90
15906;DHT22;8051;50.820;4.884;2023-04-03T10:27:03;7.30;99.90
15906;DHT22;8051;50.820;4.884;2023-04-03T10:29:40;7.40;99.90
15906;DHT22;8051;50.820;4.884;2023-04-03T10:32:27;7.40;99.90
15906;DHT22;8051;50.820;4.884;2023-04-03T10:35:05;7.40;99.90
15906;DHT22;8051;50.820;4.884;2023-04-03T10:37:39;7.40;99.90
15906;DHT22;8051;50.820;4.884;2023-04-03T10:40:19;7.50;99.90
15906;DHT22;8051;50.820;4.884;2023-04-03T10:42:54;7.40;99.90
15906;DHT22;8051;50.820;4.884;2023-04-03T10:45:28;7.50;99.90
15906;DHT22;8051;50.820;4.884;2023-04-03T10:48:04;7.60;99.90
15906;DHT22;8051;50.820;4.884;2023-04-03T10:50:44;7.80;99.90
15906;DHT22;8051;50.820;4.884;2023-04-03T10:53:20;7.80;99.90
15906;DHT22;8051;50.820;4.884;2023-04-03T10:55:56;7.80;99.90
15906;DHT22;8051;50.820;4.884;2023-04-03T10:58:30;7.80;99.90
15906;DHT22;8051;50.820;4.884;2023-04-03T11:01:02;7.90;99.90
15906;DHT22;8051;50.820;4.884;2023-04-03T11:03:36;7.90;99.90
15906;DHT22;8051;50.820;4.884;2023-04-03T11:06:08;7.90;99.90
15906;DHT22;8051;50.820;4.884;2023-04-03T11:08:42;7.90;99.90
15906;DHT22;8051;50.820;4.884;2023-04-03T11:11:16;8.00;99.90
15906;DHT22;8051;50.820;4.884;2023-04-03T11:13:49;8.00;99.90
15906;DHT22;8051;50.820;4.884;2023-04-03T11:16:24;7.90;99.90
15906;DHT22;8051;50.820;4.884;2023-04-03T11:18:57;7.70;99.90
15906;DHT22;8051;50.820;4.884;2023-04-03T11:21:31;7.70;99.90
15906;DHT22;8051;50.820;4.884;2023-04-03T11:24:03;7.90;99.90
15906;DHT22;8051;50.820;4.884;2023-04-03T11:26:38;8.00;99.90
15906;DHT22;8051;50.820;4.884;2023-04-03T11:29:11;8.20;99.90
15906;DHT22;8051;50.820;4.884;2023-04-03T11:31:56;8.10;99.90
15906;DHT22;8051;50.820;4.884;2023-04-03T11:34:34;8.00;99.90
15906;DHT22;8051;50.820;4.884;2023-04-03T11:37:11;8.10;99.90
15906;DHT22;8051;50.820;4.884;2023-04-03T11:39:48;8.20;99.90
15906;DHT22;8051;50.820;4.884;2023-04-03T11:42:25;8.40;99.90
15906;DHT22;8051;50.820;4.884;2023-04-03T11:45:17;8.40;99.90
15906;DHT22;8051;50.820;4.884;2023-04-03T11:47:51;8.40;99.90
15906;DHT22;8051;50.820;4.884;2023-04-03T11:50:40;8.40;99.90
15906;DHT22;8051;50.820;4.884;2023-04-03T11:53:30;8.40;99.90
15906;DHT22;8051;50.820;4.884;2023-04-03T11:56:00;8.30;99.90
15906;DHT22;8051;50.820;4.884;2023-04-03T11:58:30;8.40;99.90
15906;DHT22;8051;50.820;4.884;2023-04-03T12:01:07;8.40;99.90
15906;DHT22;8051;50.820;4.884;2023-04-03T12:04:05;8.30;99.90
15906;DHT22;8051;50.820;4.884;2023-04-03T12:07:18;8.30;99.90
15906;DHT22;8051;50.820;4.884;2023-04-03T12:10:02;8.40;99.90
15906;DHT22;8051;50.820;4.884;2023-04-03T12:12:36;8.30;99.90
15906;DHT22;8051;50.820;4.884;2023-04-03T12:15:21;8.50;99.90
15906;DHT22;8051;50.820;4.884;2023-04-03T12:17:49;8.60;99.90
15906;DHT22;8051;50.820;4.884;2023-04-03T12:23:32;8.80;99.90
15906;DHT22;8051;50.820;4.884;2023-04-03T12:26:03;8.90;99.90
15906;DHT22;8051;50.820;4.884;2023-04-03T12:28:37;8.90;99.90
15906;DHT22;8051;50.820;4.884;2023-04-03T12:31:08;8.90;99.90
15906;DHT22;8051;50.820;4.884;2023-04-03T12:33:51;9.00;99.90
15906;DHT22;8051;50.820;4.884;2023-04-03T12:36:33;8.90;99.90
15906;DHT22;8051;50.820;4.884;2023-04-03T12:39:17;9.00;99.90
15906;DHT22;8051;50.820;4.884;2023-04-03T12:41:55;9.00;99.90
15906;DHT22;8051;50.820;4.884;2023-04-03T12:44:40;8.70;99.90
15906;DHT22;8051;50.820;4.884;2023-04-03T12:47:22;8.80;99.90
15906;DHT22;8051;50.820;4.884;2023-04-03T12:49:50;8.90;99.90
15906;DHT22;8051;50.820;4.884;2023-04-03T12:52:30;9.00;99.90
15906;DHT22;8051;50.820;4.884;2023-04-03T12:55:00;9.00;99.90
15906;DHT22;8051;50.820;4.884;2023-04-03T12:57:30;8.90;99.90
15906;DHT22;8051;50.820;4.884;2023-04-03T12:59:59;8.80;99.90
15906;DHT22;8051;50.820;4.884;2023-04-03T13:02:28;9.10;99.90
15906;DHT22;8051;50.820;4.884;2023-04-03T13:04:58;9.00;99.90
15906;DHT22;8051;50.820;4.884;2023-04-03T13:07:29;9.00;99.90
15906;DHT22;8051;50.820;4.884;2023-04-03T13:10:13;9.00;99.90
15906;DHT22;8051;50.820;4.884;2023-04-03T13:12:53;9.10;99.90
15906;DHT22;8051;50.820;4.884;2023-04-03T13:15:22;9.20;99.90
15906;DHT22;8051;50.820;4.884;2023-04-03T13:17:51;9.10;99.90
15906;DHT22;8051;50.820;4.884;2023-04-03T13:20:22;8.90;99.90
15906;DHT22;8051;50.820;4.884;2023-04-03T13:22:57;8.90;99.90
15906;DHT22;8051;50.820;4.884;2023-04-03T13:25:28;8.90;99.90
15906;DHT22;8051;50.820;4.884;2023-04-03T13:27:58;9.00;99.90
15906;DHT22;8051;50.820;4.884;2023-04-03T13:30:29;9.10;99.90
15906;DHT22;8051;50.820;4.884;2023-04-03T13:32:58;9.20;99.90
15906;DHT22;8051;50.820;4.884;2023-04-03T13:35:35;9.40;99.90
15906;DHT22;8051;50.820;4.884;2023-04-03T13:38:06;9.40;99.90
15906;DHT22;8051;50.820;4.884;2023-04-03T13:40:47;9.50;99.90
15906;DHT22;8051;50.820;4.884;2023-04-03T13:43:19;9.60;99.90
15906;DHT22;8051;50.820;4.884;2023-04-03T13:45:59;9.50;99.90
15906;DHT22;8051;50.820;4.884;2023-04-03T13:48:27;9.40;99.90
15906;DHT22;8051;50.820;4.884;2023-04-03T13:51:03;9.40;99.90
15906;DHT22;8051;50.820;4.884;2023-04-03T13:53:33;9.30;99.90
15906;DHT22;8051;50.820;4.884;2023-04-03T13:56:16;9.20;99.90
15906;DHT22;8051;50.820;4.884;2023-04-03T13:58:58;9.20;99.90
15906;DHT22;8051;50.820;4.884;2023-04-03T14:01:37;9.50;99.90
15906;DHT22;8051;50.820;4.884;2023-04-03T14:04:14;9.50;99.90
15906;DHT22;8051;50.820;4.884;2023-04-03T14:06:43;9.70;99.90
15906;DHT22;8051;50.820;4.884;2023-04-03T14:09:10;9.70;99.90
15906;DHT22;8051;50.820;4.884;2023-04-03T14:11:40;9.70;99.90
15906;DHT22;8051;50.820;4.884;2023-04-03T14:14:13;9.60;99.90
15906;DHT22;8051;50.820;4.884;2023-04-03T14:16:44;9.70;99.90
15906;DHT22;8051;50.820;4.884;2023-04-03T14:19:19;9.50;99.90
15906;DHT22;8051;50.820;4.884;2023-04-03T14:21:47;9.50;99.90
15906;DHT22;8051;50.820;4.884;2023-04-03T14:24:14;9.60;99.90
15906;DHT22;8051;50.820;4.884;2023-04-03T14:26:43;9.60;99.90
15906;DHT22;8051;50.820;4.884;2023-04-03T14:29:12;9.60;99.90
15906;DHT22;8051;50.820;4.884;2023-04-03T14:31:41;9.70;99.90
15906;DHT22;8051;50.820;4.884;2023-04-03T14:34:10;9.70;99.90
15906;DHT22;8051;50.820;4.884;2023-04-03T14:36:38;9.80;99.90
15906;DHT22;8051;50.820;4.884;2023-04-03T14:39:10;9.90;99.90
15906;DHT22;8051;50.820;4.884;2023-04-03T14:41:38;9.80;99.90
15906;DHT22;8051;50.820;4.884;2023-04-03T14:44:07;9.70;99.90
15906;DHT22;8051;50.820;4.884;2023-04-03T14:46:36;9.60;99.90
15906;DHT22;8051;50.820;4.884;2023-04-03T14:49:06;9.80;99.90
15906;DHT22;8051;50.820;4.884;2023-04-03T14:51:40;9.90;99.90
15906;DHT22;8051;50.820;4.884;2023-04-03T14:54:13;9.80;99.90
15906;DHT22;8051;50.820;4.884;2023-04-03T14:56:41;9.80;99.90
15906;DHT22;8051;50.820;4.884;2023-04-03T14:59:12;9.80;99.90
15906;DHT22;8051;50.820;4.884;2023-04-03T15:01:40;10.00;99.90
15906;DHT22;8051;50.820;4.884;2023-04-03T15:04:11;10.00;99.90
15906;DHT22;8051;50.820;4.884;2023-04-03T15:06:39;10.00;99.90
15906;DHT22;8051;50.820;4.884;2023-04-03T15:09:14;10.00;99.90
15906;DHT22;8051;50.820;4.884;2023-04-03T15:11:45;10.10;99.90
15906;DHT22;8051;50.820;4.884;2023-04-03T15:14:14;10.00;99.90
15906;DHT22;8051;50.820;4.884;2023-04-03T15:16:41;10.10;99.90
15906;DHT22;8051;50.820;4.884;2023-04-03T15:19:09;10.10;99.90
15906;DHT22;8051;50.820;4.884;2023-04-03T15:21:36;10.00;99.90
15906;DHT22;8051;50.820;4.884;2023-04-03T15:24:04;10.00;99.90
15906;DHT22;8051;50.820;4.884;2023-04-03T15:26:32;10.10;99.90
15906;DHT22;8051;50.820;4.884;2023-04-03T15:29:00;10.10;99.90
15906;DHT22;8051;50.820;4.884;2023-04-03T15:31:29;10.10;99.90
15906;DHT22;8051;50.820;4.884;2023-04-03T15:33:57;10.20;99.90
15906;DHT22;8051;50.820;4.884;2023-04-03T15:36:24;10.10;99.90
15906;DHT22;8051;50.820;4.884;2023-04-03T15:38:52;10.00;99.90
15906;DHT22;8051;50.820;4.884;2023-04-03T15:41:20;9.90;99.90
15906;DHT22;8051;50.820;4.884;2023-04-03T15:43:47;9.90;99.90
15906;DHT22;8051;50.820;4.884;2023-04-03T15:46:14;10.00;99.90
15906;DHT22;8051;50.820;4.884;2023-04-03T15:48:43;10.00;99.90
15906;DHT22;8051;50.820;4.884;2023-04-03T15:51:11;10.10;99.90
15906;DHT22;8051;50.820;4.884;2023-04-03T15:53:41;10.20;99.90
15906;DHT22;8051;50.820;4.884;2023-04-03T15:56:09;10.20;99.90
15906;DHT22;8051;50.820;4.884;2023-04-03T15:58:37;10.10;99.90
15906;DHT22;8051;50.820;4.884;2023-04-03T16:01:06;10.10;99.90
15906;DHT22;8051;50.820;4.884;2023-04-03T16:03:33;10.00;99.90
15906;DHT22;8051;50.820;4.884;2023-04-03T16:06:02;9.90;99.90
15906;DHT22;8051;50.820;4.884;2023-04-03T16:08:29;9.90;99.90
15906;DHT22;8051;50.820;4.884;2023-04-03T16:10:57;10.00;99.90
15906;DHT22;8051;50.820;4.884;2023-04-03T16:13:24;10.10;99.90
15906;DHT22;8051;50.820;4.884;2023-04-03T16:15:52;10.00;99.90
15906;DHT22;8051;50.820;4.884;2023-04-03T16:18:19;9.90;99.90
15906;DHT22;8051;50.820;4.884;2023-04-03T16:20:47;10.00;99.90
15906;DHT22;8051;50.820;4.884;2023-04-03T16:23:16;10.00;99.90
15906;DHT22;8051;50.820;4.884;2023-04-03T16:25:45;9.90;99.90